createdAt,value
2023-11-04T00:00:06.762Z,967.8
2023-11-04T00:02:33.596Z,968
2023-11-04T00:05:00.439Z,967.9
2023-11-04T00:07:27.307Z,967.9
2023-11-04T00:09:54.123Z,967.9
2023-11-04T00:12:20.963Z,968
2023-11-04T00:14:47.798Z,967.9
2023-11-04T00:17:14.633Z,967.9
2023-11-04T00:19:40.069Z,967.9
2023-11-04T00:22:06.893Z,967.9
2023-11-04T00:24:33.720Z,968
2023-11-04T00:27:00.581Z,968
2023-11-04T00:29:27.418Z,968
2023-11-04T00:31:54.259Z,968
2023-11-04T00:34:21.100Z,968
2023-11-04T00:36:47.941Z,968
2023-11-04T00:39:14.773Z,968.1
2023-11-04T00:41:41.612Z,968
2023-11-04T00:44:08.448Z,968.1
2023-11-04T00:46:35.293Z,968.1
2023-11-04T00:49:02.134Z,968.2
2023-11-04T00:51:27.561Z,968.2
2023-11-04T00:53:54.401Z,968.3
2023-11-04T00:56:21.250Z,968.3
2023-11-04T00:58:48.090Z,968.3
2023-11-04T01:01:14.923Z,968.3
2023-11-04T01:03:41.751Z,968.3
2023-11-04T01:06:08.592Z,968.4
2023-11-04T01:08:35.453Z,968.4
2023-11-04T01:11:02.320Z,968.4
2023-11-04T01:13:29.116Z,968.4
2023-11-04T01:15:55.958Z,968.3
2023-11-04T01:18:22.788Z,968.3
2023-11-04T01:20:49.629Z,968.3
2023-11-04T01:23:15.067Z,968.3
2023-11-04T01:25:41.893Z,968.3
2023-11-04T01:28:08.726Z,968.3
2023-11-04T01:30:35.562Z,968.3
2023-11-04T01:33:02.399Z,968.3
2023-11-04T01:35:29.248Z,968.2
2023-11-04T01:37:56.085Z,968.2
2023-11-04T01:40:22.922Z,968.2
2023-11-04T01:42:49.762Z,968.2
2023-11-04T01:45:16.620Z,968.1
2023-11-04T01:47:43.489Z,968.1
2023-11-04T01:50:10.299Z,968.1
2023-11-04T01:52:37.130Z,968.1
2023-11-04T01:55:02.550Z,968.1
2023-11-04T01:57:29.385Z,968.2
2023-11-04T01:59:56.236Z,968.1
2023-11-04T02:02:23.065Z,968.2
2023-11-04T02:04:49.990Z,968.1
2023-11-04T02:07:16.760Z,968.1
2023-11-04T02:09:43.587Z,968.1
2023-11-04T02:12:10.423Z,968.1
2023-11-04T02:14:37.268Z,968
2023-11-04T02:17:04.122Z,968
2023-11-04T02:19:29.565Z,968
2023-11-04T02:21:56.407Z,967.9
2023-11-04T02:24:23.243Z,967.8
2023-11-04T02:29:16.923Z,967.9
2023-11-04T02:31:43.770Z,968
2023-11-04T02:34:10.599Z,967.9
2023-11-04T02:36:37.440Z,967.9
2023-11-04T02:39:04.277Z,967.8
2023-11-04T02:41:31.151Z,967.9
2023-11-04T02:43:57.965Z,967.9
2023-11-04T02:46:24.799Z,967.8
2023-11-04T02:48:51.666Z,967.9
2023-11-04T02:51:17.128Z,967.8
2023-11-04T02:53:43.911Z,967.8
2023-11-04T02:56:10.748Z,967.9
2023-11-04T02:58:37.578Z,967.8
2023-11-04T03:01:04.409Z,967.8
2023-11-04T03:03:31.263Z,967.8
2023-11-04T03:05:58.106Z,967.8
2023-11-04T03:08:24.939Z,967.8
2023-11-04T03:10:51.774Z,967.7
2023-11-04T03:13:18.613Z,967.8
2023-11-04T03:15:45.449Z,967.8
2023-11-04T03:18:12.296Z,967.8
2023-11-04T03:20:39.151Z,967.8
2023-11-04T03:23:05.941Z,967.8
2023-11-04T03:25:31.357Z,967.8
2023-11-04T03:27:58.214Z,967.7
2023-11-04T03:30:25.038Z,967.7
2023-11-04T03:32:51.875Z,967.7
2023-11-04T03:35:18.750Z,967.6
2023-11-04T03:37:45.555Z,967.6
2023-11-04T03:40:12.405Z,967.6
2023-11-04T03:42:39.247Z,967.6
2023-11-04T03:45:06.087Z,967.6
2023-11-04T03:47:32.916Z,967.7
2023-11-04T03:49:59.756Z,967.6
2023-11-04T03:52:26.632Z,967.6
2023-11-04T03:57:20.287Z,967.5
2023-11-04T03:59:47.138Z,967.6
2023-11-04T04:02:13.958Z,967.5
2023-11-04T04:04:40.796Z,967.5
2023-11-04T04:07:06.213Z,967.6
2023-11-04T04:09:33.046Z,967.5
2023-11-04T04:11:59.898Z,967.5
2023-11-04T04:14:26.742Z,967.5
2023-11-04T04:16:53.592Z,967.4
2023-11-04T04:19:19.562Z,967.3
2023-11-04T04:21:46.422Z,967.4
2023-11-04T04:24:13.234Z,967.3
2023-11-04T04:26:40.093Z,967.2
2023-11-04T04:29:06.917Z,967.1
2023-11-04T04:31:33.767Z,967.1
2023-11-04T04:34:00.612Z,967
2023-11-04T04:36:27.440Z,967
2023-11-04T04:38:52.902Z,967
2023-11-04T04:41:19.734Z,967.1
2023-11-04T04:43:46.557Z,967.1
2023-11-04T04:46:13.371Z,967
2023-11-04T04:48:40.229Z,967
2023-11-04T04:51:07.061Z,967
2023-11-04T04:53:33.907Z,966.9
2023-11-04T04:56:00.752Z,966.9
2023-11-04T04:58:27.585Z,966.8
2023-11-04T05:00:54.419Z,966.8
2023-11-04T05:03:21.366Z,966.8
2023-11-04T05:05:48.115Z,966.7
2023-11-04T05:08:14.957Z,966.7
2023-11-04T05:10:41.789Z,966.7
2023-11-04T05:13:07.209Z,966.7
2023-11-04T05:15:34.042Z,966.6
2023-11-04T05:18:00.891Z,966.5
2023-11-04T05:20:27.720Z,966.5
2023-11-04T05:22:54.555Z,966.6
2023-11-04T05:25:21.420Z,966.6
2023-11-04T05:27:48.258Z,966.5
2023-11-04T05:30:15.093Z,966.6
2023-11-04T05:32:41.931Z,966.6
2023-11-04T05:35:08.784Z,966.5
2023-11-04T05:37:35.614Z,966.5
2023-11-04T05:40:02.462Z,966.4
2023-11-04T05:42:29.295Z,966.4
2023-11-04T05:44:56.133Z,966.4
2023-11-04T05:47:22.985Z,966.3
2023-11-04T05:49:48.397Z,966.3
2023-11-04T05:52:15.240Z,966.3
2023-11-04T05:54:42.078Z,966.3
2023-11-04T05:57:08.911Z,966.3
2023-11-04T05:59:35.747Z,966.3
2023-11-04T06:04:29.427Z,966.1
2023-11-04T06:06:56.281Z,966.1
2023-11-04T06:09:23.133Z,966.2
2023-11-04T06:11:49.969Z,966.2
2023-11-04T06:14:16.796Z,966.1
2023-11-04T06:16:43.634Z,966.2
2023-11-04T06:19:10.478Z,966.2
2023-11-04T06:21:35.885Z,966.1
2023-11-04T06:24:02.734Z,966.1
2023-11-04T06:26:29.576Z,966.2
2023-11-04T06:28:56.419Z,966.1
2023-11-04T06:31:23.251Z,966.1
2023-11-04T06:33:50.108Z,966
2023-11-04T06:36:16.950Z,966
2023-11-04T06:38:43.782Z,966
2023-11-04T06:41:10.624Z,965.9
2023-11-04T06:43:37.465Z,965.8
2023-11-04T06:46:04.307Z,965.8
2023-11-04T06:48:31.142Z,965.7
2023-11-04T06:50:57.987Z,965.7
2023-11-04T06:53:23.389Z,965.7
2023-11-04T06:55:50.241Z,965.7
2023-11-04T06:58:17.147Z,965.6
2023-11-04T07:00:43.923Z,965.6
2023-11-04T07:03:10.767Z,965.5
2023-11-04T07:05:37.598Z,965.6
2023-11-04T07:08:04.443Z,965.6
2023-11-04T07:10:31.285Z,965.5
2023-11-04T07:12:58.124Z,965.5
2023-11-04T07:15:24.962Z,965.5
2023-11-04T07:17:51.796Z,965.6
2023-11-04T07:20:18.655Z,965.4
2023-11-04T07:22:45.574Z,965.5
2023-11-04T07:25:12.294Z,965.3
2023-11-04T07:27:37.716Z,965.4
2023-11-04T07:30:04.547Z,965.3
2023-11-04T07:32:31.391Z,965.3
2023-11-04T07:34:58.216Z,965.2
2023-11-04T07:37:25.075Z,965.2
2023-11-04T07:39:51.913Z,965.1
2023-11-04T07:42:18.758Z,965.1
2023-11-04T07:44:45.585Z,965.1
2023-11-04T07:47:12.414Z,965.1
2023-11-04T07:49:39.274Z,965.1
2023-11-04T07:52:06.104Z,965
2023-11-04T07:54:32.951Z,964.9
2023-11-04T07:56:59.775Z,965
2023-11-04T07:59:25.211Z,964.9
2023-11-04T08:01:52.063Z,965
2023-11-04T08:04:18.894Z,964.8
2023-11-04T08:06:45.725Z,964.8
2023-11-04T08:09:12.597Z,964.8
2023-11-04T08:11:39.392Z,964.7
2023-11-04T08:14:06.246Z,964.7
2023-11-04T08:16:33.075Z,964.7
2023-11-04T08:18:59.920Z,964.6
2023-11-04T08:21:26.743Z,964.5
2023-11-04T08:23:53.433Z,964.5
2023-11-04T08:26:20.256Z,964.6
2023-11-04T08:28:47.097Z,964.6
2023-11-04T08:31:13.943Z,964.6
2023-11-04T08:33:39.369Z,964.6
2023-11-04T08:36:06.210Z,964.5
2023-11-04T08:38:33.035Z,964.5
2023-11-04T08:40:59.889Z,964.4
2023-11-04T08:43:26.717Z,964.3
2023-11-04T08:45:53.553Z,964.2
2023-11-04T08:48:20.403Z,964.2
2023-11-04T08:50:47.264Z,964.1
2023-11-04T08:53:14.148Z,964.2
2023-11-04T08:55:40.916Z,964.1
2023-11-04T08:58:07.784Z,964
2023-11-04T09:00:34.597Z,964
2023-11-04T09:03:01.439Z,964
2023-11-04T09:05:28.276Z,964
2023-11-04T09:07:53.695Z,964
2023-11-04T09:12:47.378Z,963.9
2023-11-04T09:15:14.218Z,963.8
2023-11-04T09:17:41.152Z,963.8
2023-11-04T09:20:07.912Z,963.8
2023-11-04T09:22:34.737Z,963.8
2023-11-04T09:25:01.563Z,963.8
2023-11-04T09:27:28.424Z,963.7
2023-11-04T09:29:55.250Z,963.7
2023-11-04T09:32:22.092Z,963.7
2023-11-04T09:34:48.937Z,963.6
2023-11-04T09:37:15.773Z,963.6
2023-11-04T09:39:41.181Z,963.5
2023-11-04T09:42:08.031Z,963.4
2023-11-04T09:44:34.861Z,963.3
2023-11-04T09:47:01.714Z,963.2
2023-11-04T09:49:28.549Z,963.1
2023-11-04T09:51:55.383Z,963.2
2023-11-04T09:54:22.235Z,963.1
2023-11-04T09:56:49.051Z,963.1
2023-11-04T09:59:15.910Z,963.1
2023-11-04T10:01:42.740Z,963.1
2023-11-04T10:04:09.595Z,962.9
2023-11-04T10:06:36.418Z,962.8
2023-11-04T10:09:03.270Z,962.7
2023-11-04T10:11:30.117Z,962.6
2023-11-04T10:13:55.535Z,962.5
2023-11-04T10:16:22.346Z,962.5
2023-11-04T10:18:49.195Z,962.4
2023-11-04T10:21:16.032Z,962.3
2023-11-04T10:23:42.881Z,962.3
2023-11-04T10:26:09.727Z,962.3
2023-11-04T10:28:36.568Z,962.3
2023-11-04T10:31:02.028Z,962.3
2023-11-04T10:33:28.854Z,962.1
2023-11-04T10:35:55.703Z,962.1
2023-11-04T10:38:22.521Z,962
2023-11-04T10:40:49.415Z,962
2023-11-04T10:43:16.216Z,961.9
2023-11-04T10:45:43.054Z,961.8
2023-11-04T10:48:09.895Z,961.8
2023-11-04T10:50:36.751Z,961.8
2023-11-04T10:53:03.556Z,961.8
2023-11-04T10:55:30.435Z,961.7
2023-11-04T10:57:57.257Z,961.6
2023-11-04T11:00:24.189Z,961.6
2023-11-04T11:02:49.498Z,961.5
2023-11-04T11:05:16.337Z,961.3
2023-11-04T11:07:43.180Z,961.4
2023-11-04T11:10:10.058Z,961.3
2023-11-04T11:12:36.870Z,961.2
2023-11-04T11:15:03.706Z,961.1
2023-11-04T11:17:30.534Z,961.1
2023-11-04T11:19:57.404Z,961.1
2023-11-04T11:22:24.226Z,961.1
2023-11-04T11:24:51.066Z,961.1
2023-11-04T11:27:17.903Z,961.1
2023-11-04T11:29:44.746Z,961.1
2023-11-04T11:32:11.604Z,961.1
2023-11-04T11:34:36.993Z,961.1
2023-11-04T11:37:03.901Z,961.1
2023-11-04T11:39:30.671Z,961.1
2023-11-04T11:41:57.508Z,961.1
2023-11-04T11:44:24.355Z,961.1
2023-11-04T11:46:51.182Z,961.1
2023-11-04T11:49:18.028Z,961
2023-11-04T11:51:44.868Z,960.9
2023-11-04T11:56:38.559Z,960.9
2023-11-04T11:59:05.382Z,960.9
2023-11-04T12:01:32.231Z,960.7
2023-11-04T12:03:59.065Z,960.6
2023-11-04T12:06:24.490Z,960.6
2023-11-04T12:08:51.349Z,960.6
2023-11-04T12:11:18.169Z,960.6
2023-11-04T12:13:45.082Z,960.5
2023-11-04T12:16:11.845Z,960.5
2023-11-04T12:18:38.686Z,960.5
2023-11-04T12:21:05.527Z,960.5
2023-11-04T12:23:32.359Z,960.6
2023-11-04T12:25:59.216Z,960.5
2023-11-04T12:28:26.049Z,960.4
2023-11-04T12:30:52.887Z,960.5
2023-11-04T12:33:19.712Z,960.3
2023-11-04T12:35:46.549Z,960.3
2023-11-04T12:38:12.010Z,960.2
2023-11-04T12:40:38.810Z,960.2
2023-11-04T12:43:05.650Z,959.9
2023-11-04T12:45:32.505Z,959.7
2023-11-04T12:47:59.348Z,959.3
2023-11-04T12:50:26.169Z,959.1
2023-11-04T12:52:53.020Z,959.1
2023-11-04T12:55:19.852Z,959.1
2023-11-04T12:57:46.691Z,959
2023-11-04T13:00:13.543Z,958.9
2023-11-04T13:02:40.369Z,958.9
2023-11-04T13:05:07.207Z,958.9
2023-11-04T13:07:34.048Z,959
2023-11-04T13:09:59.464Z,959
2023-11-04T13:12:26.302Z,959.2
2023-11-04T13:14:53.162Z,959.1
2023-11-04T13:17:19.980Z,959.1
2023-11-04T13:19:47.014Z,959.1
2023-11-04T13:22:13.664Z,959
2023-11-04T13:24:40.497Z,959.1
2023-11-04T13:27:07.339Z,959.1
2023-11-04T13:29:34.191Z,959.2
2023-11-04T13:32:01.040Z,959.2
2023-11-04T13:34:27.876Z,959.1
2023-11-04T13:36:54.693Z,959.1
2023-11-04T13:39:21.542Z,958.9
2023-11-04T13:41:46.945Z,958.8
2023-11-04T13:44:13.821Z,958.6
2023-11-04T13:46:40.634Z,958.4
2023-11-04T13:49:07.474Z,958.4
2023-11-04T13:51:34.316Z,958.4
2023-11-04T13:54:01.151Z,958.4
2023-11-04T13:56:27.982Z,958.4
2023-11-04T13:58:54.856Z,958.4
2023-11-04T14:01:21.680Z,958.5
2023-11-04T14:03:48.514Z,958.5
2023-11-04T14:06:15.356Z,958.5
2023-11-04T14:08:42.209Z,958.3
2023-11-04T14:13:35.864Z,958.1
2023-11-04T14:16:01.348Z,958.6
2023-11-04T14:18:28.120Z,958.5
2023-11-04T14:20:54.964Z,958.5
2023-11-04T14:23:21.808Z,958.6
2023-11-04T14:25:48.634Z,958.5
2023-11-04T14:28:15.481Z,958.5
2023-11-04T14:30:42.316Z,958.4
2023-11-04T14:33:09.160Z,958.4
2023-11-04T14:35:35.987Z,958.4
2023-11-04T14:38:02.825Z,958.4
2023-11-04T14:40:29.675Z,958.5
2023-11-04T14:42:56.504Z,958.4
2023-11-04T14:45:23.370Z,958.4
2023-11-04T14:47:48.796Z,958.3
2023-11-04T14:52:42.441Z,958.4
2023-11-04T14:55:09.299Z,958.3
2023-11-04T14:57:36.130Z,958.3
2023-11-04T15:00:02.973Z,958.4
2023-11-04T15:02:29.805Z,958.4
2023-11-04T15:04:56.646Z,958.2
2023-11-04T15:07:23.496Z,958.2
2023-11-04T15:09:50.323Z,958.2
2023-11-04T15:12:17.174Z,958
2023-11-04T15:14:44.009Z,958
2023-11-04T15:17:10.883Z,958
2023-11-04T15:19:37.658Z,957.9
2023-11-04T15:22:03.147Z,957.7
2023-11-04T15:24:29.914Z,957.8
2023-11-04T15:26:56.769Z,957.7
2023-11-04T15:29:23.593Z,957.7
2023-11-04T15:31:50.488Z,957.5
2023-11-04T15:36:44.113Z,956.5
2023-11-04T15:39:10.955Z,956.1
2023-11-04T15:41:37.827Z,956.5
2023-11-04T15:44:04.628Z,956.5
2023-11-04T15:46:31.465Z,956.9
2023-11-04T15:48:58.320Z,956.6
2023-11-04T15:51:25.192Z,956.9
2023-11-04T15:53:50.561Z,957.1
2023-11-04T15:56:17.413Z,957.1
2023-11-04T15:58:44.245Z,957.2
2023-11-04T16:01:11.096Z,957.2
2023-11-04T16:03:37.933Z,957.1
2023-11-04T16:08:31.605Z,957.1
2023-11-04T16:10:58.443Z,957.2
2023-11-04T16:13:25.297Z,957.2
2023-11-04T16:15:52.127Z,957.1
2023-11-04T16:18:18.963Z,957
2023-11-04T16:20:45.843Z,956.9
2023-11-04T16:23:12.650Z,956.8
2023-11-04T16:25:39.458Z,956.7
2023-11-04T16:28:04.877Z,956.9
2023-11-04T16:30:31.756Z,956.9
2023-11-04T16:32:58.551Z,957
2023-11-04T16:35:25.399Z,957.1
2023-11-04T16:37:52.238Z,956.9
2023-11-04T16:40:19.070Z,957
2023-11-04T16:42:45.938Z,957.1
2023-11-04T16:45:12.746Z,957.2
2023-11-04T16:47:39.584Z,956.9
2023-11-04T16:50:06.444Z,956.9
2023-11-04T16:52:33.265Z,956.9
2023-11-04T16:55:00.109Z,956.7
2023-11-04T16:57:26.959Z,956.8
2023-11-04T16:59:52.359Z,957.1
2023-11-04T17:02:19.213Z,957.3
2023-11-04T17:04:46.034Z,957.3
2023-11-04T17:07:12.888Z,957.1
2023-11-04T17:09:39.733Z,957.1
2023-11-04T17:12:06.568Z,957.1
2023-11-04T17:14:33.396Z,957.1
2023-11-04T17:17:00.254Z,957.1
2023-11-04T17:19:27.087Z,957.1
2023-11-04T17:21:53.924Z,956.9
2023-11-04T17:24:20.780Z,956.8
2023-11-04T17:26:47.594Z,956.8
2023-11-04T17:29:14.498Z,957
2023-11-04T17:31:39.859Z,957.1
2023-11-04T17:34:06.709Z,957.3
2023-11-04T17:36:33.540Z,957.5
2023-11-04T17:39:00.377Z,957.6
2023-11-04T17:41:27.279Z,957.4
2023-11-04T17:43:54.054Z,957.4
2023-11-04T17:46:20.998Z,957.3
2023-11-04T17:48:47.727Z,957.3
2023-11-04T17:51:14.581Z,957.4
2023-11-04T17:53:41.409Z,957.4
2023-11-04T17:56:08.267Z,957.5
2023-11-04T17:58:35.091Z,957.5
2023-11-04T18:01:01.937Z,957.5
2023-11-04T18:03:27.345Z,957.4
2023-11-04T18:05:54.197Z,957.5
2023-11-04T18:08:21.050Z,957.3
2023-11-04T18:10:47.893Z,957.2
2023-11-04T18:13:14.708Z,957.1
2023-11-04T18:15:41.601Z,957.1
2023-11-04T18:18:08.384Z,957.1
2023-11-04T18:20:35.229Z,957
2023-11-04T18:23:02.076Z,957.1
2023-11-04T18:25:28.904Z,957.1
2023-11-04T18:27:55.743Z,957.1
2023-11-04T18:30:22.600Z,957.2
2023-11-04T18:32:49.424Z,957.2
2023-11-04T18:35:15.031Z,957
2023-11-04T18:37:41.744Z,957
2023-11-04T18:40:08.525Z,956.9
2023-11-04T18:42:35.361Z,956.8
2023-11-04T18:45:00.800Z,956.7
2023-11-04T18:47:27.701Z,956.4
2023-11-04T18:49:54.478Z,956.4
2023-11-04T18:52:21.358Z,956.1
2023-11-04T18:54:47.952Z,955.9
2023-11-04T18:57:14.803Z,955.8
2023-11-04T19:02:08.501Z,955.6
2023-11-04T19:04:35.344Z,955.6
2023-11-04T19:07:02.159Z,955.7
2023-11-04T19:09:28.988Z,955.9
2023-11-04T19:11:55.819Z,956.2
2023-11-04T19:14:22.669Z,956.3
2023-11-04T19:16:49.466Z,956.4
2023-11-04T19:19:14.874Z,956.3
2023-11-04T19:21:41.722Z,956.3
2023-11-04T19:24:08.555Z,956.4
2023-11-04T19:26:35.385Z,956.5
2023-11-04T19:29:02.247Z,956.4
2023-11-04T19:31:29.080Z,956.4
2023-11-04T19:33:55.909Z,956.3
2023-11-04T19:36:22.767Z,956.4
2023-11-04T19:38:49.609Z,956.5
2023-11-04T19:41:16.480Z,956.3
2023-11-04T19:43:43.285Z,956.3
2023-11-04T19:46:10.132Z,956.5
2023-11-04T19:48:36.983Z,956.5
2023-11-04T19:51:03.784Z,956.6
2023-11-04T19:53:29.244Z,956.6
2023-11-04T19:55:56.046Z,956.6
2023-11-04T19:58:22.898Z,956.7
2023-11-04T20:00:49.759Z,956.7
2023-11-04T20:03:16.563Z,956.7
2023-11-04T20:05:43.414Z,956.5
2023-11-04T20:08:10.254Z,956.5
2023-11-04T20:10:37.091Z,956.5
2023-11-04T20:13:03.923Z,956.6
2023-11-04T20:15:30.818Z,956.6
2023-11-04T20:17:57.599Z,956.6
2023-11-04T20:20:24.445Z,956.7
2023-11-04T20:22:51.388Z,956.7
2023-11-04T20:25:18.098Z,956.8
2023-11-04T20:27:44.942Z,956.8
2023-11-04T20:30:11.782Z,956.9
2023-11-04T20:32:37.186Z,956.8
2023-11-04T20:35:04.059Z,956.9
2023-11-04T20:37:30.868Z,956.9
2023-11-04T20:39:57.711Z,956.9
2023-11-04T20:42:24.562Z,956.9
2023-11-04T20:44:51.417Z,956.9
2023-11-04T20:47:18.237Z,956.8
2023-11-04T20:49:45.070Z,956.9
2023-11-04T20:52:11.920Z,957
2023-11-04T20:54:38.738Z,956.9
2023-11-04T20:57:05.601Z,956.9
2023-11-04T20:59:32.428Z,956.9
2023-11-04T21:01:59.266Z,956.9
2023-11-04T21:06:52.950Z,956.8
2023-11-04T21:09:19.760Z,956.9
2023-11-04T21:11:45.172Z,956.9
2023-11-04T21:14:12.018Z,956.7
2023-11-04T21:16:38.849Z,956.6
2023-11-04T21:19:05.702Z,956.5
2023-11-04T21:21:32.529Z,956.4
2023-11-04T21:23:59.377Z,956.3
2023-11-04T21:26:26.215Z,956.4
2023-11-04T21:28:53.036Z,956.3
2023-11-04T21:31:19.878Z,956.3
2023-11-04T21:33:46.739Z,956.2
2023-11-04T21:36:13.642Z,956.3
2023-11-04T21:38:40.460Z,956.6
2023-11-04T21:41:07.243Z,956.7
2023-11-04T21:43:32.665Z,956.8
2023-11-04T21:45:59.509Z,956.8
2023-11-04T21:48:26.378Z,956.7
2023-11-04T21:50:53.188Z,956.7
2023-11-04T21:53:20.016Z,956.7
2023-11-04T21:55:46.866Z,956.7
2023-11-04T21:58:13.760Z,956.7
2023-11-04T22:00:40.548Z,956.7
2023-11-04T22:03:07.365Z,956.6
2023-11-04T22:05:34.214Z,956.7
2023-11-04T22:08:00.232Z,956.8
2023-11-04T22:10:27.069Z,956.8
2023-11-04T22:12:53.949Z,956.7
2023-11-04T22:15:19.345Z,956.8
2023-11-04T22:17:46.168Z,956.8
2023-11-04T22:20:13.031Z,956.8
2023-11-04T22:22:39.852Z,956.8
2023-11-04T22:25:06.682Z,956.8
2023-11-04T22:27:33.550Z,956.9
2023-11-04T22:30:00.369Z,956.9
2023-11-04T22:34:54.057Z,956.8
2023-11-04T22:37:20.876Z,956.8
2023-11-04T22:39:47.720Z,956.8
2023-11-04T22:42:14.577Z,956.8
2023-11-04T22:44:41.401Z,956.7
2023-11-04T22:47:08.213Z,956.7
2023-11-04T22:49:35.064Z,956.7
2023-11-04T22:52:00.478Z,956.6
2023-11-04T22:54:27.321Z,956.7
2023-11-04T22:56:54.142Z,956.7
2023-11-04T22:59:20.995Z,956.6
2023-11-04T23:01:47.838Z,956.5
2023-11-04T23:04:14.674Z,956.4
2023-11-04T23:06:41.514Z,956.5
2023-11-04T23:09:08.342Z,956.5
2023-11-04T23:11:35.196Z,956.4
2023-11-04T23:14:02.032Z,956.3
2023-11-04T23:16:28.886Z,956.3
2023-11-04T23:18:55.709Z,956.2
2023-11-04T23:21:22.564Z,956.1
2023-11-04T23:23:47.979Z,956.2
2023-11-04T23:26:14.836Z,956
2023-11-04T23:28:41.664Z,956.2
2023-11-04T23:31:08.480Z,956.1
2023-11-04T23:33:35.329Z,956.2
2023-11-04T23:36:02.194Z,956.1
2023-11-04T23:38:29.020Z,956.1
2023-11-04T23:40:55.859Z,956.1
2023-11-04T23:43:22.695Z,956
2023-11-04T23:45:49.524Z,955.9
2023-11-04T23:48:16.382Z,955.9
2023-11-04T23:50:43.202Z,955.9
2023-11-04T23:53:10.041Z,955.9
2023-11-04T23:55:36.849Z,955.9
2023-11-04T23:58:02.261Z,955.8
